CheckWX is a tool to help pilots better visualize weather data.  It is not intended as a substitute for an official pre-flight weather briefing.

03:43:45 UTC

KPHL METAR
Philadelphia International Airport
Philadelphia, Pennsylvania, USA
Current

50 mins ago

KPHL 260254Z 19007KT 10SM SCT130 BKN250 18/13 A3007 RMK AO2 SLP183 T01830128 56007 $
Observed
May-26 @ 02:54 UTC
Wind
  • 190° at 7 KTS
Visibility
10 SM
Flight Rules
VFR
Cloud Levels
  • Scattered at 13,000' AGL
  • Broken at 25,000' AGL
Temperature
18°C / 64°F
Dewpoint
13°C / 55°F
Humidity
73%
Altimeter
30.07" Hg
Pressure
1018.32 hPa
Previous

2 hours ago

KPHL 260154Z 18007KT 10SM BKN120 BKN250 18/12 A3009 RMK AO2 SLP188 T01830117 $
Observed
May-26 @ 01:54 UTC
Wind
  • 180° at 7 KTS
Visibility
10 SM
Flight Rules
VFR
Cloud Levels
  • Broken at 12,000' AGL
  • Broken at 25,000' AGL
Temperature
18°C / 64°F
Dewpoint
12°C / 54°F
Humidity
68%
Altimeter
30.09" Hg
Pressure
1018.92 hPa
Previous

3 hours ago

KPHL 260054Z 17010G16KT 10SM FEW045 BKN130 BKN250 19/11 A3007 RMK AO2 SLP182 T01890111 $
Observed
May-26 @ 00:54 UTC
Wind
  • 170° at 10 KTS
  • Gusting to 16 KTS
Visibility
10 SM
Flight Rules
VFR
Cloud Levels
  • Few at 4,500' AGL
  • Broken at 13,000' AGL
  • Broken at 25,000' AGL
Temperature
19°C / 66°F
Dewpoint
11°C / 52°F
Humidity
60%
Altimeter
30.07" Hg
Pressure
1018.32 hPa